Terminal Aerodrome Forecast
Issued by NWS

Home | Current Version | Previous Version | Graphics & Text | Print | Product List | Glossary On
Versions: 1 2 3 4 5 6 7 8 9 10 11 12 13 14 15 16 17 18 19
000
FTUS43 KMPX 220556 CCA
TAFRNH
TAF COR
KRNH 220556Z 2206/2306 00000KT P6SM SCT120 BKN250
      TEMPO 2206/2210 3/4SM BR
     FM221000 00000KT P6SM VCSH BKN100
     FM222000 31006KT P6SM BKN100
     FM230100 32008KT P6SM OVC020=

USA.gov is the U.S. government's official web portal to all federal, state and local government web resources and services.